createdAt,value
2022-12-01T00:00:39.579Z,54.46
2022-12-01T00:01:39.599Z,58.44
2022-12-01T00:02:39.656Z,54.23
2022-12-01T00:03:39.571Z,50.09
2022-12-01T00:04:39.549Z,48.42
2022-12-01T00:05:39.551Z,48.56
2022-12-01T00:06:39.556Z,50.35
2022-12-01T00:07:39.610Z,47.24
2022-12-01T00:08:39.528Z,47.40
2022-12-01T00:09:39.519Z,45.80
2022-12-01T00:10:39.534Z,46.12
2022-12-01T00:11:39.518Z,41.38
2022-12-01T00:12:39.517Z,52.30
2022-12-01T00:13:39.499Z,43.96
2022-12-01T00:14:39.484Z,48.41
2022-12-01T00:15:39.478Z,57.04
2022-12-01T00:16:39.497Z,52.44
2022-12-01T00:17:39.494Z,41.94
2022-12-01T00:18:39.456Z,41.41
2022-12-01T00:19:39.451Z,44.17
2022-12-01T00:20:39.432Z,50.78
2022-12-01T00:21:39.428Z,55.91
2022-12-01T00:22:39.460Z,50.52
2022-12-01T00:23:39.407Z,47.74
2022-12-01T00:24:39.404Z,44.26
2022-12-01T00:25:39.395Z,57.10
2022-12-01T00:26:39.399Z,47.45
2022-12-01T00:27:39.459Z,47.11
2022-12-01T00:28:39.369Z,50.86
2022-12-01T00:29:39.369Z,47.73
2022-12-01T00:30:39.361Z,46.24
2022-12-01T00:31:39.404Z,51.60
2022-12-01T00:32:39.371Z,50.32
2022-12-01T00:33:39.346Z,59.83
2022-12-01T00:34:39.336Z,52.57
2022-12-01T00:36:12.133Z,56.98
2022-12-01T00:36:39.313Z,58.13
2022-12-01T00:37:39.342Z,62.64
2022-12-01T00:38:39.299Z,57.81
2022-12-01T00:39:39.308Z,59.34
2022-12-01T00:40:39.287Z,62.22
2022-12-01T00:41:39.293Z,59.04
2022-12-01T00:42:39.269Z,58.76
2022-12-01T00:43:39.298Z,58.87
2022-12-01T00:44:39.263Z,58.91
2022-12-01T00:45:39.351Z,58.20
2022-12-01T00:46:39.237Z,58.78
2022-12-01T00:47:39.232Z,58.30
2022-12-01T00:48:39.250Z,58.33
2022-12-01T00:49:39.217Z,58.97
2022-12-01T00:50:39.209Z,58.87
2022-12-01T00:51:39.208Z,58.58
2022-12-01T00:52:39.197Z,58.65
2022-12-01T00:53:39.219Z,57.74
2022-12-01T00:54:39.178Z,57.74
2022-12-01T00:55:39.178Z,58.05
2022-12-01T00:56:39.171Z,58.46
2022-12-01T00:57:39.158Z,62.99
2022-12-01T00:58:39.220Z,57.96
2022-12-01T00:59:39.142Z,56.14
2022-12-01T01:00:42.671Z,47.06
2022-12-01T01:01:42.571Z,51.34
2022-12-01T01:02:41.613Z,41.58
2022-12-01T01:03:43.103Z,57.67
2022-12-01T01:04:41.230Z,48.33
2022-12-01T01:05:41.547Z,48.67
2022-12-01T01:06:39.097Z,52.97
2022-12-01T01:07:39.101Z,43.82
2022-12-01T01:08:39.128Z,47.26
2022-12-01T01:09:39.071Z,50.70
2022-12-01T01:10:39.062Z,49.02
2022-12-01T01:11:39.055Z,57.53
2022-12-01T01:12:39.047Z,47.52
2022-12-01T01:13:39.065Z,61.10
2022-12-01T01:14:39.032Z,45.04
2022-12-01T01:15:39.032Z,46.69
2022-12-01T01:16:39.052Z,60.18
2022-12-01T01:17:39.009Z,48.27
2022-12-01T01:18:39.048Z,51.00
2022-12-01T01:19:38.990Z,46.58
2022-12-01T01:20:38.992Z,52.06
2022-12-01T01:21:38.973Z,48.19
2022-12-01T01:22:38.974Z,58.07
2022-12-01T01:23:38.987Z,51.01
2022-12-01T01:24:38.954Z,50.57
2022-12-01T01:25:38.943Z,46.41
2022-12-01T01:26:38.941Z,42.27
2022-12-01T01:27:38.934Z,46.21
2022-12-01T01:28:38.956Z,51.94
2022-12-01T01:29:38.916Z,46.91
2022-12-01T01:30:38.972Z,42.37
2022-12-01T01:31:38.906Z,42.16
2022-12-01T01:32:38.894Z,45.96
2022-12-01T01:33:38.913Z,47.97
2022-12-01T01:34:38.882Z,49.25
2022-12-01T01:35:38.871Z,52.73
2022-12-01T01:36:38.905Z,46.16
2022-12-01T01:37:38.869Z,58.19
2022-12-01T01:38:38.875Z,61.20
2022-12-01T01:39:38.845Z,50.35
2022-12-01T01:40:38.842Z,45.81
2022-12-01T01:41:38.826Z,47.82
2022-12-01T01:42:38.827Z,45.12
2022-12-01T01:43:38.844Z,51.13
2022-12-01T01:44:38.807Z,49.68
2022-12-01T01:45:38.813Z,44.06
2022-12-01T01:46:38.793Z,51.43
2022-12-01T01:47:38.787Z,45.93
2022-12-01T01:48:38.817Z,47.80
2022-12-01T01:49:38.772Z,49.51
2022-12-01T01:50:38.765Z,56.45
2022-12-01T01:51:38.756Z,48.93
2022-12-01T01:52:38.744Z,50.02
2022-12-01T01:53:38.769Z,54.28
2022-12-01T01:54:38.731Z,42.63
2022-12-01T01:55:38.725Z,46.90
2022-12-01T01:56:38.748Z,41.67
2022-12-01T01:57:38.710Z,43.93
2022-12-01T01:58:38.728Z,55.73
2022-12-01T01:59:38.694Z,50.50
2022-12-01T02:00:38.689Z,47.96
2022-12-01T02:01:38.760Z,51.12
2022-12-01T02:02:38.822Z,43.37
2022-12-01T02:03:38.708Z,47.07
2022-12-01T02:04:38.663Z,53.10
2022-12-01T02:05:38.652Z,55.53
2022-12-01T02:06:38.646Z,47.77
2022-12-01T02:07:38.661Z,50.64
2022-12-01T02:08:38.662Z,43.89
2022-12-01T02:09:38.621Z,53.11
2022-12-01T02:10:38.613Z,61.32
2022-12-01T02:11:38.601Z,48.74
2022-12-01T02:12:38.596Z,43.28
2022-12-01T02:13:38.626Z,57.91
2022-12-01T02:14:38.585Z,53.40
2022-12-01T02:15:38.571Z,43.18
2022-12-01T02:16:38.623Z,43.61
2022-12-01T02:17:41.753Z,46.49
2022-12-01T02:18:39.578Z,49.22
2022-12-01T02:19:38.539Z,44.58
2022-12-01T02:20:38.531Z,59.21
2022-12-01T02:21:38.521Z,55.93
2022-12-01T02:22:38.537Z,49.58
2022-12-01T02:23:38.539Z,53.74
2022-12-01T02:24:38.507Z,50.15
2022-12-01T02:25:38.503Z,48.01
2022-12-01T02:26:38.489Z,55.73
2022-12-01T02:27:38.490Z,50.39
2022-12-01T02:28:38.505Z,56.72
2022-12-01T02:29:38.497Z,53.58
2022-12-01T02:30:38.472Z,44.13
2022-12-01T02:31:38.450Z,50.46
2022-12-01T02:32:38.446Z,50.52
2022-12-01T02:33:38.437Z,63.08
2022-12-01T02:34:38.452Z,54.31
2022-12-01T02:35:38.415Z,49.47
2022-12-01T02:36:38.406Z,44.19
2022-12-01T02:37:38.435Z,48.69
2022-12-01T02:38:38.403Z,42.06
2022-12-01T02:39:38.388Z,48.22
2022-12-01T02:40:38.382Z,61.22
2022-12-01T02:41:38.364Z,59.25
2022-12-01T02:42:38.390Z,47.11
2022-12-01T02:43:38.354Z,48.48
2022-12-01T02:44:38.350Z,41.98
2022-12-01T02:45:38.343Z,56.14
2022-12-01T02:46:38.358Z,46.93
2022-12-01T02:47:38.353Z,48.25
2022-12-01T02:48:38.307Z,48.69
2022-12-01T02:49:38.357Z,48.61
2022-12-01T02:50:38.301Z,48.57
2022-12-01T02:51:38.293Z,48.26
2022-12-01T02:52:38.317Z,51.59
2022-12-01T02:53:38.279Z,53.34
2022-12-01T02:54:38.277Z,58.85
2022-12-01T02:55:38.258Z,58.43
2022-12-01T02:56:38.254Z,48.46
2022-12-01T02:57:38.282Z,50.39
2022-12-01T02:58:38.240Z,52.00
2022-12-01T02:59:38.234Z,45.23
2022-12-01T03:00:38.225Z,49.56
2022-12-01T03:01:38.308Z,50.64
2022-12-01T03:02:38.268Z,48.92
2022-12-01T03:03:38.210Z,51.96
2022-12-01T03:04:38.195Z,47.94
2022-12-01T03:05:38.186Z,58.22
2022-12-01T03:06:38.182Z,60.58
2022-12-01T03:07:38.244Z,59.60
2022-12-01T03:08:38.163Z,59.83
2022-12-01T03:09:38.155Z,60.31
2022-12-01T03:10:38.151Z,60.22
2022-12-01T03:11:38.152Z,60.14
2022-12-01T03:12:38.157Z,60.55
2022-12-01T03:13:38.124Z,60.27
2022-12-01T03:14:38.115Z,60.39
2022-12-01T03:15:38.180Z,60.57
2022-12-01T03:16:38.114Z,60.02
2022-12-01T03:17:38.129Z,60.39
2022-12-01T03:18:38.100Z,61.53
2022-12-01T03:19:38.079Z,59.93
2022-12-01T03:20:38.072Z,60.15
2022-12-01T03:21:38.057Z,60.01
2022-12-01T03:22:38.098Z,59.48
2022-12-01T03:23:38.042Z,59.88
2022-12-01T03:24:39.039Z,59.30
2022-12-01T03:25:38.038Z,59.33
2022-12-01T03:26:38.025Z,58.17
2022-12-01T03:27:38.561Z,46.02
2022-12-01T03:28:38.017Z,51.53
2022-12-01T03:29:38.007Z,50.57
2022-12-01T03:30:38.024Z,57.13
2022-12-01T03:31:38.019Z,45.17
2022-12-01T03:32:38.013Z,47.93
2022-12-01T03:33:37.968Z,49.79
2022-12-01T03:34:37.964Z,48.67
2022-12-01T03:35:37.956Z,54.84
2022-12-01T03:36:37.953Z,61.26
2022-12-01T03:37:37.944Z,58.98
2022-12-01T03:38:37.963Z,53.84
2022-12-01T03:39:37.931Z,52.89
2022-12-01T03:40:37.927Z,58.93
2022-12-01T03:41:37.911Z,54.43
2022-12-01T03:42:37.902Z,53.27
2022-12-01T03:43:37.919Z,48.26
2022-12-01T03:44:37.889Z,51.95
2022-12-01T03:45:37.885Z,49.40
2022-12-01T03:46:37.920Z,54.83
2022-12-01T03:47:37.882Z,52.89
2022-12-01T03:48:37.883Z,51.92
2022-12-01T03:49:37.857Z,57.52
2022-12-01T03:50:37.842Z,47.35
2022-12-01T03:51:37.877Z,51.27
2022-12-01T03:52:37.828Z,48.74
2022-12-01T03:53:37.849Z,50.71
2022-12-01T03:54:37.819Z,54.10
2022-12-01T03:55:37.812Z,51.98
2022-12-01T03:56:37.796Z,50.68
2022-12-01T03:57:37.802Z,55.68
2022-12-01T03:58:37.820Z,47.55
2022-12-01T03:59:37.774Z,50.41
2022-12-01T04:00:37.767Z,59.49
2022-12-01T04:01:37.800Z,55.07
2022-12-01T04:02:37.838Z,50.78
2022-12-01T04:03:37.770Z,53.40
2022-12-01T04:04:37.734Z,55.48
2022-12-01T04:05:37.731Z,55.84
2022-12-01T04:06:37.718Z,50.89
2022-12-01T04:07:37.782Z,56.11
2022-12-01T04:08:37.735Z,53.27
2022-12-01T04:09:37.697Z,53.25
2022-12-01T04:10:37.704Z,54.25
2022-12-01T04:11:37.686Z,63.36
2022-12-01T04:12:37.677Z,52.67
2022-12-01T04:13:37.694Z,56.83
2022-12-01T04:14:37.668Z,56.08
2022-12-01T04:15:37.729Z,58.58
2022-12-01T04:16:37.656Z,62.13
2022-12-01T04:17:37.659Z,55.11
2022-12-01T04:18:37.672Z,58.02
2022-12-01T04:19:37.640Z,55.70
2022-12-01T04:20:37.623Z,57.20
2022-12-01T04:21:37.614Z,53.50
2022-12-01T04:22:37.631Z,51.14
2022-12-01T04:23:37.626Z,52.96
2022-12-01T04:24:37.599Z,55.51
2022-12-01T04:25:37.589Z,53.87
2022-12-01T04:26:37.584Z,52.71
2022-12-01T04:27:37.574Z,54.78
2022-12-01T04:28:37.630Z,56.36
2022-12-01T04:29:37.562Z,54.33
2022-12-01T04:30:37.565Z,58.96
2022-12-01T04:31:37.574Z,56.67
2022-12-01T04:32:37.535Z,58.70
2022-12-01T04:33:37.560Z,62.83
2022-12-01T04:34:37.543Z,53.76
2022-12-01T04:35:37.515Z,58.71
2022-12-01T04:36:37.508Z,52.48
2022-12-01T04:37:37.498Z,62.30
2022-12-01T04:38:37.518Z,54.42
2022-12-01T04:39:37.483Z,53.39
2022-12-01T04:40:37.478Z,57.14
2022-12-01T04:41:37.468Z,60.40
2022-12-01T04:42:37.466Z,60.61
2022-12-01T04:43:37.455Z,56.77
2022-12-01T04:44:37.482Z,58.35
2022-12-01T04:45:37.439Z,55.11
2022-12-01T04:46:37.471Z,54.32
2022-12-01T04:47:37.422Z,54.68
2022-12-01T04:48:37.416Z,60.53
2022-12-01T04:49:37.442Z,57.67
2022-12-01T04:50:37.404Z,51.95
2022-12-01T04:51:37.416Z,59.72
2022-12-01T04:52:37.380Z,57.10
2022-12-01T04:53:37.375Z,56.53
2022-12-01T04:54:37.389Z,57.44
2022-12-01T04:55:37.365Z,62.03
2022-12-01T04:56:37.349Z,58.39
2022-12-01T04:57:37.346Z,56.72
2022-12-01T04:58:37.326Z,53.84
2022-12-01T04:59:37.358Z,58.80
2022-12-01T05:00:37.392Z,57.49
2022-12-01T05:01:37.369Z,57.16
2022-12-01T05:02:37.330Z,51.89
2022-12-01T05:03:37.317Z,58.57
2022-12-01T05:04:37.340Z,60.38
2022-12-01T05:05:37.311Z,56.26
2022-12-01T05:06:37.283Z,47.75
2022-12-01T05:07:37.284Z,57.09
2022-12-01T05:08:37.261Z,57.33
2022-12-01T05:09:37.285Z,58.13
2022-12-01T05:10:37.246Z,59.25
2022-12-01T05:11:37.246Z,56.19
2022-12-01T05:12:37.226Z,61.24
2022-12-01T05:13:37.223Z,56.02
2022-12-01T05:14:37.250Z,57.25
2022-12-01T05:15:37.209Z,58.42
2022-12-01T05:16:37.268Z,59.75
2022-12-01T05:17:37.376Z,63.26
2022-12-01T05:18:38.280Z,57.29
2022-12-01T05:19:37.207Z,59.03
2022-12-01T05:20:37.252Z,58.44
2022-12-01T05:21:37.160Z,56.89
2022-12-01T05:23:04.257Z,61.36
2022-12-01T05:23:39.154Z,59.75
2022-12-01T05:24:37.161Z,57.75
2022-12-01T05:25:37.143Z,58.37
2022-12-01T05:26:37.125Z,54.59
2022-12-01T05:27:37.169Z,58.94
2022-12-01T05:28:37.107Z,67.42
2022-12-01T05:29:37.148Z,58.76
2022-12-01T05:30:37.091Z,57.67
2022-12-01T05:31:37.163Z,55.87
2022-12-01T05:32:37.081Z,58.64
2022-12-01T05:33:37.066Z,56.54
2022-12-01T05:34:37.081Z,58.24
2022-12-01T05:35:37.059Z,59.78
2022-12-01T05:36:37.045Z,60.84
2022-12-01T05:37:37.064Z,58.93
2022-12-01T05:38:37.027Z,58.73
2022-12-01T05:39:37.064Z,57.14
2022-12-01T05:40:37.017Z,55.39
2022-12-01T05:41:37.006Z,60.68
2022-12-01T05:42:37.007Z,59.92
2022-12-01T05:43:36.993Z,59.01
2022-12-01T05:44:37.044Z,58.79
2022-12-01T05:45:37.026Z,60.70
2022-12-01T05:46:36.972Z,58.76
2022-12-01T05:47:36.961Z,61.19
2022-12-01T05:48:36.966Z,61.55
2022-12-01T05:49:36.996Z,62.39
2022-12-01T05:50:36.942Z,62.35
2022-12-01T05:51:36.938Z,61.34
2022-12-01T05:52:36.944Z,62.22
2022-12-01T05:53:36.924Z,61.23
2022-12-01T05:54:36.954Z,61.44
2022-12-01T05:55:36.918Z,62.27
2022-12-01T05:56:36.896Z,61.50
2022-12-01T05:57:36.896Z,63.48
2022-12-01T05:58:36.876Z,63.25
2022-12-01T05:59:36.906Z,60.82
2022-12-01T06:00:40.870Z,60.15
2022-12-01T06:01:38.931Z,65.79
2022-12-01T06:02:36.850Z,61.62
2022-12-01T06:03:36.839Z,62.16
2022-12-01T06:04:37.862Z,61.71
2022-12-01T06:05:36.843Z,61.14
2022-12-01T06:06:38.781Z,61.00
2022-12-01T06:07:36.824Z,61.88
2022-12-01T06:08:36.827Z,62.31
2022-12-01T06:09:36.837Z,63.30
2022-12-01T06:10:36.831Z,60.68
2022-12-01T06:11:36.784Z,58.98
2022-12-01T06:12:36.983Z,60.62
2022-12-01T06:13:36.810Z,56.07
2022-12-01T06:14:36.777Z,58.93
2022-12-01T06:15:36.780Z,58.28
2022-12-01T06:16:36.809Z,58.11
2022-12-01T06:17:40.211Z,56.59
2022-12-01T06:18:37.729Z,56.29
2022-12-01T06:19:36.730Z,63.70
2022-12-01T06:20:36.746Z,58.19
2022-12-01T06:21:36.715Z,58.29
2022-12-01T06:22:36.699Z,59.28
2022-12-01T06:23:36.691Z,57.43
2022-12-01T06:24:36.682Z,59.75
2022-12-01T06:25:36.712Z,59.07
2022-12-01T06:26:36.674Z,59.92
2022-12-01T06:27:36.668Z,62.48
2022-12-01T06:28:36.653Z,54.60
2022-12-01T06:29:41.839Z,55.99
2022-12-01T06:30:38.668Z,57.78
2022-12-01T06:31:36.685Z,55.45
2022-12-01T06:32:36.652Z,57.87
2022-12-01T06:33:36.637Z,61.17
2022-12-01T06:34:36.605Z,59.22
2022-12-01T06:36:08.655Z,60.00
2022-12-01T06:36:36.613Z,57.75
2022-12-01T06:37:36.601Z,59.41
2022-12-01T06:38:36.586Z,60.64
2022-12-01T06:39:36.577Z,60.38
2022-12-01T06:40:36.636Z,62.12
2022-12-01T06:41:36.554Z,60.55
2022-12-01T06:42:36.577Z,62.08
2022-12-01T06:43:36.585Z,61.06
2022-12-01T06:44:36.544Z,62.10
2022-12-01T06:45:36.651Z,59.63
2022-12-01T06:46:36.747Z,58.80
2022-12-01T06:47:36.514Z,64.34
2022-12-01T06:48:36.510Z,59.43
2022-12-01T06:49:36.498Z,59.97
2022-12-01T06:50:36.516Z,60.84
2022-12-01T06:51:36.486Z,59.81
2022-12-01T06:52:37.135Z,60.75
2022-12-01T06:53:36.465Z,58.94
2022-12-01T06:54:36.463Z,58.14
2022-12-01T06:55:36.471Z,63.33
2022-12-01T06:56:36.442Z,58.19
2022-12-01T06:57:37.371Z,58.09
2022-12-01T06:58:36.434Z,64.93
2022-12-01T06:59:36.424Z,58.00
2022-12-01T07:00:36.445Z,58.68
2022-12-01T07:01:36.493Z,55.37
2022-12-01T07:02:36.557Z,60.67
2022-12-01T07:03:36.390Z,59.21
2022-12-01T07:04:36.378Z,57.50
2022-12-01T07:05:36.411Z,62.58
2022-12-01T07:06:36.398Z,61.59
2022-12-01T07:07:36.413Z,56.12
2022-12-01T07:08:36.356Z,59.24
2022-12-01T07:09:36.344Z,62.65
2022-12-01T07:10:36.337Z,55.66
2022-12-01T07:11:36.358Z,59.09
2022-12-01T07:12:36.319Z,53.83
2022-12-01T07:13:36.314Z,60.55
2022-12-01T07:14:36.310Z,61.29
2022-12-01T07:15:36.302Z,57.03
2022-12-01T07:16:36.399Z,57.06
2022-12-01T07:17:36.316Z,55.72
2022-12-01T07:18:36.300Z,63.74
2022-12-01T07:19:36.273Z,58.80
2022-12-01T07:20:36.267Z,59.15
2022-12-01T07:21:36.434Z,59.90
2022-12-01T07:22:36.246Z,58.47
2022-12-01T07:23:36.243Z,59.73
2022-12-01T07:24:36.291Z,59.33
2022-12-01T07:25:36.238Z,58.02
2022-12-01T07:26:36.932Z,61.15
2022-12-01T07:27:36.254Z,60.38
2022-12-01T07:28:36.205Z,59.13
2022-12-01T07:29:36.203Z,60.14
2022-12-01T07:30:36.231Z,59.02
2022-12-01T07:31:36.233Z,61.39
2022-12-01T07:32:36.212Z,59.74
2022-12-01T07:33:36.212Z,63.48
2022-12-01T07:34:36.185Z,60.96
2022-12-01T07:35:36.148Z,60.78
2022-12-01T07:36:36.202Z,57.87
2022-12-01T07:37:36.134Z,60.36
2022-12-01T07:38:36.125Z,64.04
2022-12-01T07:39:36.124Z,61.37
2022-12-01T07:40:37.110Z,60.93
2022-12-01T07:41:36.145Z,58.41
2022-12-01T07:42:36.094Z,59.30
2022-12-01T07:43:36.087Z,60.06
2022-12-01T07:44:36.086Z,62.55
2022-12-01T07:45:36.083Z,59.15
2022-12-01T07:46:36.145Z,59.71
2022-12-01T07:47:36.065Z,63.21
2022-12-01T07:48:36.059Z,58.19
2022-12-01T07:49:36.056Z,55.31
2022-12-01T07:50:36.032Z,60.12
2022-12-01T07:51:37.056Z,57.50
2022-12-01T07:52:36.171Z,60.62
2022-12-01T07:53:36.057Z,59.48
2022-12-01T07:54:36.012Z,60.02
2022-12-01T07:55:36.000Z,57.09
2022-12-01T07:56:36.026Z,61.95
2022-12-01T07:57:36.004Z,63.12
2022-12-01T07:58:35.987Z,59.29
2022-12-01T07:59:35.966Z,60.31
2022-12-01T08:00:35.959Z,61.24
2022-12-01T08:01:39.173Z,62.22
2022-12-01T08:02:36.976Z,61.74
2022-12-01T08:03:35.947Z,61.18
2022-12-01T08:04:35.931Z,61.27
2022-12-01T08:05:35.929Z,62.68
2022-12-01T08:06:35.951Z,62.01
2022-12-01T08:07:35.976Z,61.47
2022-12-01T08:08:35.908Z,63.83
2022-12-01T08:09:35.893Z,61.56
2022-12-01T08:10:35.882Z,62.52
2022-12-01T08:11:35.893Z,64.22
2022-12-01T08:12:35.894Z,61.09
2022-12-01T08:13:35.858Z,61.73
2022-12-01T08:14:35.866Z,61.17
2022-12-01T08:15:35.905Z,60.88
2022-12-01T08:16:35.848Z,60.31
2022-12-01T08:17:35.862Z,59.72
2022-12-01T08:18:35.823Z,61.74
2022-12-01T08:19:35.813Z,57.23
2022-12-01T08:20:35.820Z,56.24
2022-12-01T08:21:35.805Z,58.11
2022-12-01T08:22:35.832Z,58.58
2022-12-01T08:23:35.788Z,58.61
2022-12-01T08:24:35.792Z,60.18
2022-12-01T08:25:35.771Z,58.97
2022-12-01T08:26:35.813Z,58.90
2022-12-01T08:27:35.778Z,56.50
2022-12-01T08:28:36.259Z,58.38
2022-12-01T08:29:35.759Z,59.38
2022-12-01T08:30:35.737Z,59.73
2022-12-01T08:31:35.889Z,59.27
2022-12-01T08:32:35.746Z,56.87
2022-12-01T08:33:35.715Z,58.97
2022-12-01T08:34:35.723Z,57.69
2022-12-01T08:35:35.705Z,58.45
2022-12-01T08:36:35.687Z,61.92
2022-12-01T08:37:35.730Z,61.60
2022-12-01T08:38:35.674Z,59.87
2022-12-01T08:39:35.671Z,58.21
2022-12-01T08:40:35.667Z,61.81
2022-12-01T08:41:35.660Z,58.38
2022-12-01T08:42:35.669Z,58.81
2022-12-01T08:43:56.692Z,57.39
2022-12-01T08:44:37.672Z,56.17
2022-12-01T08:45:35.621Z,59.44
2022-12-01T08:46:35.663Z,58.51
2022-12-01T08:47:35.636Z,59.90
2022-12-01T08:48:35.600Z,58.63
2022-12-01T08:49:35.591Z,60.16
2022-12-01T08:50:35.585Z,56.60
2022-12-01T08:51:35.584Z,57.07
2022-12-01T08:52:35.597Z,59.53
2022-12-01T08:53:35.569Z,59.44
2022-12-01T08:54:35.557Z,58.52
2022-12-01T08:55:35.546Z,57.23
2022-12-01T08:56:35.558Z,61.73
2022-12-01T08:57:35.567Z,62.05
2022-12-01T08:58:35.531Z,60.09
2022-12-01T08:59:35.520Z,64.81
2022-12-01T09:00:35.512Z,59.46
2022-12-01T09:01:36.534Z,64.26
2022-12-01T09:02:35.621Z,54.83
2022-12-01T09:03:35.524Z,60.09
2022-12-01T09:04:36.481Z,58.78
2022-12-01T09:05:35.471Z,58.32
2022-12-01T09:06:35.459Z,61.55
2022-12-01T09:07:35.538Z,59.11
2022-12-01T09:08:35.458Z,64.43
2022-12-01T09:09:35.445Z,60.67
2022-12-01T09:10:35.478Z,58.92
2022-12-01T09:11:35.429Z,55.91
2022-12-01T09:12:35.450Z,57.17
2022-12-01T09:13:35.431Z,57.69
2022-12-01T09:14:35.402Z,59.78
2022-12-01T09:15:35.403Z,57.51
2022-12-01T09:16:35.465Z,58.67
2022-12-01T09:17:35.412Z,61.57
2022-12-01T09:18:35.373Z,58.68
2022-12-01T09:19:35.456Z,58.89
2022-12-01T09:20:35.359Z,58.73
2022-12-01T09:21:35.353Z,55.95
2022-12-01T09:22:35.393Z,60.05
2022-12-01T09:23:35.350Z,59.98
2022-12-01T09:24:35.339Z,56.46
2022-12-01T09:25:35.360Z,56.73
2022-12-01T09:26:35.354Z,58.79
2022-12-01T09:27:35.410Z,59.13
2022-12-01T09:28:35.309Z,58.02
2022-12-01T09:29:35.294Z,60.35
2022-12-01T09:30:35.290Z,58.99
2022-12-01T09:31:35.316Z,57.07
2022-12-01T09:32:35.529Z,53.58
2022-12-01T09:33:35.279Z,60.54
2022-12-01T09:34:35.266Z,57.88
2022-12-01T09:35:35.247Z,56.09
2022-12-01T09:36:35.275Z,58.85
2022-12-01T09:37:35.535Z,58.28
2022-12-01T09:38:35.234Z,59.36
2022-12-01T09:39:35.220Z,59.28
2022-12-01T09:40:35.219Z,58.71
2022-12-01T09:41:35.273Z,58.78
2022-12-01T09:42:35.623Z,59.47
2022-12-01T09:43:36.207Z,59.64
2022-12-01T09:44:35.195Z,60.32
2022-12-01T09:45:35.889Z,59.38
2022-12-01T09:46:35.503Z,59.33
2022-12-01T09:47:35.267Z,58.31
2022-12-01T09:48:35.259Z,59.99
2022-12-01T09:49:35.161Z,60.74
2022-12-01T09:50:35.141Z,61.39
2022-12-01T09:51:35.164Z,58.10
2022-12-01T09:52:35.154Z,59.15
2022-12-01T09:53:35.113Z,59.38
2022-12-01T09:54:35.112Z,60.62
2022-12-01T09:55:35.242Z,62.02
2022-12-01T09:56:35.091Z,59.98
2022-12-01T09:57:35.119Z,59.09
2022-12-01T09:58:35.086Z,59.73
2022-12-01T09:59:35.119Z,57.86
2022-12-01T10:00:35.120Z,59.92
2022-12-01T10:01:35.092Z,57.35
2022-12-01T10:02:35.152Z,58.99
2022-12-01T10:03:35.055Z,58.32
2022-12-01T10:04:35.030Z,56.97
2022-12-01T10:05:35.065Z,60.84
2022-12-01T10:06:35.116Z,61.91
2022-12-01T10:07:35.142Z,60.44
2022-12-01T10:08:35.011Z,63.38
2022-12-01T10:09:35.038Z,59.61
2022-12-01T10:10:34.998Z,59.36
2022-12-01T10:11:34.990Z,59.37
2022-12-01T10:12:34.998Z,56.03
2022-12-01T10:13:34.965Z,57.86
2022-12-01T10:14:34.957Z,58.97
2022-12-01T10:15:35.003Z,62.08
2022-12-01T10:16:35.140Z,59.78
2022-12-01T10:17:35.112Z,57.81
2022-12-01T10:18:34.935Z,53.57
2022-12-01T10:19:34.931Z,57.74
2022-12-01T10:20:35.014Z,65.38
2022-12-01T10:21:34.939Z,58.69
2022-12-01T10:22:34.932Z,59.76
2022-12-01T10:23:34.927Z,58.99
2022-12-01T10:24:35.015Z,56.88
2022-12-01T10:25:34.912Z,57.42
2022-12-01T10:26:34.884Z,58.93
2022-12-01T10:27:34.919Z,56.95
2022-12-01T10:28:34.900Z,61.12
2022-12-01T10:29:34.846Z,62.61
2022-12-01T10:30:34.842Z,65.39
2022-12-01T10:31:34.877Z,61.84
2022-12-01T10:32:34.830Z,62.49
2022-12-01T10:33:34.855Z,61.95
2022-12-01T10:34:34.808Z,62.08
2022-12-01T10:35:34.822Z,62.78
2022-12-01T10:36:34.812Z,61.88
2022-12-01T10:37:34.862Z,61.80
2022-12-01T10:38:34.811Z,61.64
2022-12-01T10:39:34.773Z,63.78
2022-12-01T10:40:34.771Z,62.17
2022-12-01T10:41:34.808Z,62.42
2022-12-01T10:42:34.749Z,64.00
2022-12-01T10:43:34.770Z,61.77
2022-12-01T10:44:34.750Z,61.33
2022-12-01T10:45:35.780Z,63.26
2022-12-01T10:46:34.784Z,62.22
2022-12-01T10:47:34.717Z,61.07
2022-12-01T10:48:34.752Z,61.48
2022-12-01T10:49:34.711Z,64.25
2022-12-01T10:50:34.695Z,61.27
2022-12-01T10:51:34.687Z,62.98
2022-12-01T10:52:34.686Z,59.08
2022-12-01T10:53:34.705Z,60.42
2022-12-01T10:54:34.665Z,60.16
2022-12-01T10:55:34.656Z,59.31
2022-12-01T10:56:34.654Z,59.05
2022-12-01T10:57:34.647Z,59.57
2022-12-01T10:58:34.655Z,57.33
2022-12-01T10:59:34.625Z,57.98
2022-12-01T11:01:36.699Z,58.33
2022-12-01T11:02:35.033Z,58.62
2022-12-01T11:03:34.768Z,58.93
2022-12-01T11:04:34.595Z,56.07
2022-12-01T11:05:34.590Z,65.62
2022-12-01T11:06:34.573Z,58.55
2022-12-01T11:07:34.654Z,59.95
2022-12-01T11:08:34.583Z,60.23
2022-12-01T11:09:34.553Z,60.00
2022-12-01T11:10:34.548Z,64.01
2022-12-01T11:11:34.541Z,64.56
2022-12-01T11:12:34.527Z,59.71
2022-12-01T11:13:34.555Z,61.51
2022-12-01T11:14:34.519Z,59.91
2022-12-01T11:15:34.515Z,58.96
2022-12-01T11:16:34.553Z,59.62
2022-12-01T11:17:34.488Z,59.29
2022-12-01T11:18:34.608Z,59.57
2022-12-01T11:19:34.599Z,58.11
2022-12-01T11:20:34.533Z,59.93
2022-12-01T11:21:34.462Z,62.11
2022-12-01T11:22:34.455Z,60.31
2022-12-01T11:23:34.447Z,60.74
2022-12-01T11:24:34.475Z,58.56
2022-12-01T11:25:34.438Z,59.75
2022-12-01T11:26:34.428Z,58.80
2022-12-01T11:27:34.420Z,64.85
2022-12-01T11:28:34.410Z,59.72
2022-12-01T11:29:34.428Z,59.48
2022-12-01T11:30:34.396Z,61.09
2022-12-01T11:31:34.394Z,60.99
2022-12-01T11:32:34.421Z,57.75
2022-12-01T11:33:34.378Z,58.16
2022-12-01T11:34:34.432Z,60.36
2022-12-01T11:35:34.357Z,60.10
2022-12-01T11:36:34.359Z,58.64
2022-12-01T11:37:34.336Z,59.21
2022-12-01T11:38:34.334Z,59.46
2022-12-01T11:39:34.356Z,59.58
2022-12-01T11:40:34.328Z,60.33
2022-12-01T11:41:34.327Z,56.52
2022-12-01T11:42:34.326Z,60.25
2022-12-01T11:43:34.307Z,58.58
2022-12-01T11:45:36.308Z,54.29
2022-12-01T11:46:34.277Z,60.66
2022-12-01T11:47:34.285Z,58.66
2022-12-01T11:48:34.267Z,60.50
2022-12-01T11:49:34.303Z,60.42
2022-12-01T11:50:34.268Z,61.49
2022-12-01T11:51:34.247Z,60.52
2022-12-01T11:52:34.234Z,61.21
2022-12-01T11:53:34.526Z,61.29
2022-12-01T11:54:34.249Z,61.40
2022-12-01T11:55:34.206Z,60.95
2022-12-01T11:56:34.208Z,59.28
2022-12-01T11:57:35.176Z,61.24
2022-12-01T11:58:35.218Z,58.68
2022-12-01T11:59:34.206Z,62.83
2022-12-01T12:00:34.174Z,59.68
2022-12-01T12:01:34.217Z,59.98
2022-12-01T12:02:34.240Z,57.60
2022-12-01T12:03:34.197Z,59.61
2022-12-01T12:04:34.188Z,59.07
2022-12-01T12:05:34.134Z,58.75
2022-12-01T12:06:41.157Z,58.16
2022-12-01T12:07:36.209Z,59.62
2022-12-01T12:08:34.141Z,60.87
2022-12-01T12:09:34.135Z,59.38
2022-12-01T12:10:34.128Z,59.40
2022-12-01T12:11:34.089Z,60.55
2022-12-01T12:12:34.078Z,60.82
2022-12-01T12:13:34.065Z,58.64
2022-12-01T12:14:34.088Z,56.78
2022-12-01T12:15:34.065Z,61.07
2022-12-01T12:16:34.047Z,60.33
2022-12-01T12:17:34.124Z,59.51
2022-12-01T12:18:34.030Z,60.26
2022-12-01T12:19:52.241Z,65.47
2022-12-01T12:20:35.015Z,59.96
2022-12-01T12:21:34.006Z,57.20
2022-12-01T12:22:34.003Z,59.55
2022-12-01T12:23:33.996Z,59.47
2022-12-01T12:24:34.018Z,57.37
2022-12-01T12:25:33.979Z,60.87
2022-12-01T12:26:33.975Z,57.82
2022-12-01T12:27:33.965Z,58.18
2022-12-01T12:28:33.972Z,57.69
2022-12-01T12:29:33.984Z,62.02
2022-12-01T12:30:33.961Z,59.83
2022-12-01T12:31:33.930Z,59.85
2022-12-01T12:32:33.948Z,58.24
2022-12-01T12:33:33.936Z,60.41
2022-12-01T12:34:33.937Z,60.99
2022-12-01T12:35:33.910Z,59.91
2022-12-01T12:38:52.973Z,62.26
2022-12-01T12:39:53.021Z,62.18
2022-12-01T12:40:52.948Z,61.38
2022-12-01T12:41:54.502Z,62.67
2022-12-01T12:42:52.989Z,62.37
2022-12-01T12:43:52.994Z,62.42
2022-12-01T12:44:54.759Z,62.79
2022-12-01T12:45:57.068Z,64.37
2022-12-01T12:46:56.503Z,62.33
2022-12-01T12:47:56.595Z,62.29
2022-12-01T12:49:18.485Z,62.87
2022-12-01T12:49:59.006Z,62.15
2022-12-01T12:50:55.579Z,61.66
2022-12-01T12:51:56.006Z,62.10
2022-12-01T12:52:55.508Z,62.13
2022-12-01T12:53:56.093Z,62.63
2022-12-01T12:54:55.504Z,64.91
2022-12-01T12:56:01.043Z,60.06
2022-12-01T12:56:56.077Z,60.07